Time;durP1;ratioP1;P1;durP2;ratioP2;P2;SDS_P1;SDS_P2;PMS_P1;PMS_P2;Temp;Humidity;BMP_temperature;BMP_pressure;BME280_temperature;BME280_humidity;BME280_pressure;Samples;Min_cycle;Max_cycle;Signal;HPM_P1;HPM_P2
2022/12/10 00:00:45;;;;;;;;;;;22.30;77.70;;;;;;5050984;28;19915;-67
2022/12/10 00:03:12;;;;;;;;;;;22.30;77.10;;;;;;5054993;28;19991;-66
2022/12/10 00:05:38;;;;;;;;;;;22.30;76.50;;;;;;5057011;28;19962;-66
2022/12/10 00:08:05;;;;;;;;;;;22.40;77.20;;;;;;5054335;28;19926;-67
2022/12/10 00:10:31;;;;;;;;;;;22.20;77.00;;;;;;5053086;28;19951;-67
2022/12/10 00:12:58;;;;;;;;;;;22.30;77.50;;;;;;5035350;28;19962;-67
2022/12/10 00:15:25;;;;;;;;;;;22.40;77.80;;;;;;5034387;28;20353;-67
2022/12/10 00:17:51;;;;;;;;;;;22.30;77.40;;;;;;5041131;28;19936;-68
2022/12/10 00:20:18;;;;;;;;;;;22.30;77.30;;;;;;5044320;28;19919;-65
2022/12/10 00:22:45;;;;;;;;;;;22.10;78.90;;;;;;5056850;28;19956;-66
2022/12/10 00:25:11;;;;;;;;;;;22.20;78.20;;;;;;5048516;28;19927;-68
2022/12/10 00:27:38;;;;;;;;;;;22.40;78.00;;;;;;5037255;28;19955;-67
2022/12/10 00:30:05;;;;;;;;;;;22.40;76.90;;;;;;5035347;28;19909;-67
2022/12/10 00:32:31;;;;;;;;;;;22.50;76.90;;;;;;5034772;28;19921;-67
2022/12/10 00:34:58;;;;;;;;;;;22.70;77.10;;;;;;5034924;28;20042;-68
2022/12/10 00:37:26;;;;;;;;;;;22.70;76.80;;;;;;5034421;28;19966;-67
2022/12/10 00:39:52;;;;;;;;;;;22.80;76.90;;;;;;5043329;28;19927;-68
2022/12/10 00:42:19;;;;;;;;;;;23.00;76.70;;;;;;5056027;28;20364;-67
2022/12/10 00:44:45;;;;;;;;;;;22.90;75.70;;;;;;5055635;28;19909;-66
2022/12/10 00:47:12;;;;;;;;;;;22.60;77.00;;;;;;5054320;28;19920;-68
2022/12/10 00:49:39;;;;;;;;;;;22.30;77.70;;;;;;5052739;28;19921;-67
2022/12/10 00:52:05;;;;;;;;;;;21.80;78.00;;;;;;5041560;28;19919;-67
2022/12/10 00:54:32;;;;;;;;;;;21.60;79.00;;;;;;5053185;28;19916;-66
2022/12/10 00:56:59;;;;;;;;;;;21.40;79.80;;;;;;5054782;28;19919;-66
2022/12/10 00:59:25;;;;;;;;;;;21.60;80.60;;;;;;5055408;28;19919;-67
2022/12/10 01:01:52;;;;;;;;;;;22.00;79.30;;;;;;5055691;28;20298;-65
2022/12/10 01:04:18;;;;;;;;;;;22.40;78.40;;;;;;5055303;28;20699;-67
2022/12/10 01:06:45;;;;;;;;;;;22.80;77.00;;;;;;5049155;28;20543;-66
2022/12/10 01:09:13;;;;;;;;;;;23.00;79.20;;;;;;5054938;28;19912;-67
2022/12/10 01:11:41;;;;;;;;;;;23.10;76.10;;;;;;5034716;28;19923;-67
2022/12/10 01:14:10;;;;;;;;;;;23.00;75.00;;;;;;5036682;28;20373;-66
2022/12/10 01:16:37;;;;;;;;;;;22.90;75.70;;;;;;5033266;28;19909;-65
2022/12/10 01:19:03;;;;;;;;;;;22.90;76.40;;;;;;5043181;28;19913;-68
2022/12/10 01:21:30;;;;;;;;;;;22.80;76.40;;;;;;5045883;28;19920;-67
2022/12/10 01:23:57;;;;;;;;;;;22.70;77.10;;;;;;5040564;28;19920;-66
2022/12/10 01:26:26;;;;;;;;;;;22.60;76.90;;;;;;5038818;28;19916;-67
2022/12/10 01:28:53;;;;;;;;;;;22.60;77.60;;;;;;5040505;28;19913;-69
2022/12/10 01:31:30;;;;;;;;;;;22.90;77.30;;;;;;5043143;28;19909;-68
2022/12/10 01:34:00;;;;;;;;;;;22.90;76.60;;;;;;5042950;28;19924;-66
2022/12/10 01:36:28;;;;;;;;;;;23.20;76.40;;;;;;5041060;28;19926;-66
2022/12/10 01:38:55;;;;;;;;;;;23.70;76.80;;;;;;5039814;28;19913;-67
2022/12/10 01:41:23;;;;;;;;;;;24.20;74.00;;;;;;5041459;28;20211;-66
2022/12/10 01:43:58;;;;;;;;;;;24.10;74.10;;;;;;5041764;28;20361;-67
2022/12/10 01:46:29;;;;;;;;;;;24.50;75.00;;;;;;5042974;28;19913;-67
2022/12/10 01:48:56;;;;;;;;;;;24.80;73.00;;;;;;5041454;28;20366;-65
2022/12/10 01:51:24;;;;;;;;;;;24.80;72.80;;;;;;5040542;28;20003;-69
2022/12/10 01:53:51;;;;;;;;;;;24.60;73.10;;;;;;5042061;28;20383;-69
2022/12/10 01:56:19;;;;;;;;;;;24.70;72.60;;;;;;5040875;28;20595;-69
2022/12/10 01:58:46;;;;;;;;;;;25.20;70.40;;;;;;5043696;28;20288;-70
2022/12/10 02:01:13;;;;;;;;;;;25.00;71.20;;;;;;5047103;28;19909;-66
2022/12/10 02:03:44;;;;;;;;;;;25.00;71.70;;;;;;5049828;28;20547;-68
2022/12/10 02:06:21;;;;;;;;;;;24.90;71.50;;;;;;5046257;28;19912;-67
2022/12/10 02:08:57;;;;;;;;;;;24.70;72.20;;;;;;5042393;28;19920;-67
2022/12/10 02:11:28;;;;;;;;;;;24.10;73.20;;;;;;5036350;28;20033;-66
2022/12/10 02:13:55;;;;;;;;;;;23.90;73.40;;;;;;5036900;28;20142;-68
2022/12/10 02:16:33;;;;;;;;;;;24.00;73.50;;;;;;5047773;28;19913;-67
2022/12/10 02:19:20;;;;;;;;;;;24.10;72.70;;;;;;5056051;28;19909;-65
2022/12/10 02:21:48;;;;;;;;;;;23.90;73.30;;;;;;5038788;28;19929;-68
2022/12/10 02:24:18;;;;;;;;;;;23.50;74.90;;;;;;5054793;28;20019;-65
2022/12/10 02:27:08;;;;;;;;;;;23.30;75.60;;;;;;5053437;28;19993;-64
2022/12/10 02:29:35;;;;;;;;;;;23.20;76.30;;;;;;5050911;28;19939;-65
2022/12/10 02:32:21;;;;;;;;;;;23.50;75.60;;;;;;5042465;28;20281;-65
2022/12/10 02:34:50;;;;;;;;;;;24.20;75.40;;;;;;5046467;28;19920;-67
2022/12/10 02:37:43;;;;;;;;;;;25.10;72.60;;;;;;5043814;28;19909;-65
2022/12/10 02:40:13;;;;;;;;;;;25.70;71.70;;;;;;5035148;28;19919;-64
2022/12/10 02:42:42;;;;;;;;;;;26.10;70.80;;;;;;5043654;28;19931;-65
2022/12/10 02:45:09;;;;;;;;;;;25.90;71.40;;;;;;5045546;28;19913;-64
2022/12/10 02:47:36;;;;;;;;;;;25.50;71.10;;;;;;5040593;28;19920;-65
2022/12/10 02:50:03;;;;;;;;;;;25.40;71.60;;;;;;5036135;28;20276;-67
2022/12/10 02:52:30;;;;;;;;;;;25.60;71.00;;;;;;5036885;28;19913;-64
2022/12/10 02:54:56;;;;;;;;;;;25.60;70.40;;;;;;5038525;28;19916;-67
2022/12/10 02:57:23;;;;;;;;;;;25.50;70.80;;;;;;5048589;28;19984;-66
2022/12/10 02:59:53;;;;;;;;;;;25.50;70.70;;;;;;5058793;28;20345;-64
2022/12/10 03:02:34;;;;;;;;;;;24.80;72.00;;;;;;5053665;28;19917;-64
2022/12/10 03:05:04;;;;;;;;;;;24.60;73.00;;;;;;5045902;28;19921;-66
2022/12/10 03:07:34;;;;;;;;;;;24.50;73.00;;;;;;5045661;28;19912;-66
2022/12/10 03:10:11;;;;;;;;;;;23.80;74.10;;;;;;5047909;28;19917;-64
2022/12/10 03:12:57;;;;;;;;;;;23.30;75.40;;;;;;5055264;28;20261;-66
2022/12/10 03:15:25;;;;;;;;;;;23.30;76.20;;;;;;5053365;28;19919;-65
2022/12/10 03:17:53;;;;;;;;;;;23.30;75.90;;;;;;5057548;28;19912;-66
2022/12/10 03:20:21;;;;;;;;;;;23.60;76.10;;;;;;5053222;28;20494;-67
2022/12/10 03:22:48;;;;;;;;;;;24.50;75.90;;;;;;5056999;28;19921;-64
2022/12/10 03:25:17;;;;;;;;;;;26.00;72.80;;;;;;5055475;28;19927;-65
2022/12/10 03:27:45;;;;;;;;;;;27.00;70.00;;;;;;5052261;28;19962;-65
2022/12/10 03:30:12;;;;;;;;;;;28.30;67.10;;;;;;5054823;28;19920;-65
2022/12/10 03:32:39;;;;;;;;;;;28.80;66.20;;;;;;5054102;28;20784;-62
2022/12/10 03:35:06;;;;;;;;;;;29.60;65.10;;;;;;5057464;28;19920;-66
2022/12/10 03:37:34;;;;;;;;;;;30.40;62.70;;;;;;5050583;28;19916;-66
2022/12/10 03:40:01;;;;;;;;;;;30.70;63.20;;;;;;5048648;28;19962;-66
2022/12/10 03:42:28;;;;;;;;;;;31.70;61.30;;;;;;5046897;28;20011;-66
2022/12/10 03:44:54;;;;;;;;;;;30.80;61.10;;;;;;5047611;28;20567;-64
2022/12/10 03:47:21;;;;;;;;;;;29.00;64.60;;;;;;5054667;28;19909;-65
2022/12/10 03:49:48;;;;;;;;;;;28.80;64.30;;;;;;5054338;28;19916;-64
2022/12/10 03:52:15;;;;;;;;;;;28.80;64.80;;;;;;5057839;28;19916;-64
2022/12/10 03:54:42;;;;;;;;;;;28.40;64.60;;;;;;5054407;28;19909;-66
2022/12/10 03:57:08;;;;;;;;;;;28.70;64.90;;;;;;5050578;28;19958;-66
2022/12/10 03:59:35;;;;;;;;;;;28.80;64.30;;;;;;5041806;28;19912;-70
2022/12/10 04:02:02;;;;;;;;;;;28.40;65.00;;;;;;5038698;28;19921;-69
2022/12/10 04:04:28;;;;;;;;;;;27.30;67.00;;;;;;5039057;28;20581;-66
2022/12/10 04:06:55;;;;;;;;;;;26.70;67.90;;;;;;5033321;28;19908;-67
2022/12/10 04:09:22;;;;;;;;;;;26.40;69.80;;;;;;5039927;28;19912;-69
2022/12/10 04:11:48;;;;;;;;;;;26.10;69.30;;;;;;5052846;28;19919;-70
2022/12/10 04:17:00;;;;;;;;;;;26.10;69.30;;;;;;5053028;28;20000;-65
2022/12/10 04:19:27;;;;;;;;;;;26.90;68.50;;;;;;5046933;28;19912;-68
2022/12/10 04:27:30;;;;;;;;;;;26.10;69.80;;;;;;5052988;28;19923;-66
2022/12/10 04:29:57;;;;;;;;;;;26.10;70.10;;;;;;5045790;28;19913;-68
2022/12/10 04:32:24;;;;;;;;;;;25.80;70.00;;;;;;5047888;28;19909;-65
2022/12/10 04:34:51;;;;;;;;;;;25.50;71.30;;;;;;5048489;28;19991;-66
2022/12/10 04:37:18;;;;;;;;;;;26.50;70.70;;;;;;5052439;28;20012;-70
2022/12/10 04:39:45;;;;;;;;;;;28.40;67.60;;;;;;5034071;28;19909;-67
2022/12/10 04:42:12;;;;;;;;;;;30.40;63.80;;;;;;5034257;28;20608;-65
2022/12/10 04:44:39;;;;;;;;;;;30.80;62.60;;;;;;5052450;28;19916;-64
2022/12/10 04:47:07;;;;;;;;;;;31.00;62.30;;;;;;5053660;28;20267;-66
2022/12/10 04:49:34;;;;;;;;;;;31.80;60.90;;;;;;5054971;28;19969;-68
2022/12/10 04:52:01;;;;;;;;;;;31.80;60.50;;;;;;5052817;28;19908;-68
2022/12/10 04:54:27;;;;;;;;;;;31.00;61.80;;;;;;5055847;28;19954;-67
2022/12/10 04:56:54;;;;;;;;;;;30.70;62.20;;;;;;5052020;28;19912;-69
2022/12/10 04:59:21;;;;;;;;;;;29.60;62.80;;;;;;5056889;28;19908;-69
2022/12/10 05:01:47;;;;;;;;;;;28.90;64.30;;;;;;5054563;28;19923;-67
2022/12/10 05:04:15;;;;;;;;;;;28.20;66.00;;;;;;5054348;28;19908;-70
2022/12/10 05:06:42;;;;;;;;;;;27.80;67.10;;;;;;5039319;28;19913;-67
2022/12/10 05:09:10;;;;;;;;;;;29.00;65.10;;;;;;5049981;28;19913;-67
2022/12/10 05:11:37;;;;;;;;;;;29.70;63.50;;;;;;5055855;28;19909;-67
2022/12/10 05:14:04;;;;;;;;;;;29.90;63.50;;;;;;5053802;28;20435;-66
2022/12/10 05:16:31;;;;;;;;;;;30.70;61.90;;;;;;5053158;28;19934;-65
2022/12/10 05:18:59;;;;;;;;;;;30.60;61.60;;;;;;5034631;28;20007;-65
2022/12/10 05:23:27;;;;;;;;;;;29.70;62.60;;;;;;5034887;28;19939;-66
2022/12/10 05:24:13;;;;;;;;;;;28.80;63.60;;;;;;5033924;28;19928;-67
2022/12/10 05:26:40;;;;;;;;;;;28.20;65.60;;;;;;5055318;28;19908;-64
2022/12/10 05:29:07;;;;;;;;;;;28.30;64.30;;;;;;5053970;28;19908;-66
2022/12/10 05:31:33;;;;;;;;;;;27.60;65.20;;;;;;5055561;28;20288;-67
2022/12/10 05:34:00;;;;;;;;;;;27.50;65.10;;;;;;5050406;28;19920;-64
2022/12/10 05:36:29;;;;;;;;;;;28.00;66.00;;;;;;5049816;28;20046;-66
2022/12/10 05:38:56;;;;;;;;;;;29.10;63.60;;;;;;5038184;28;19916;-67
2022/12/10 05:41:27;;;;;;;;;;;29.20;63.00;;;;;;5037996;28;19919;-68
2022/12/10 05:43:54;;;;;;;;;;;28.00;64.00;;;;;;5038731;28;19916;-65
2022/12/10 05:46:22;;;;;;;;;;;27.40;65.80;;;;;;5055621;28;20070;-66
2022/12/10 05:48:49;;;;;;;;;;;27.10;66.80;;;;;;5058085;28;19909;-65
2022/12/10 05:51:17;;;;;;;;;;;27.00;67.00;;;;;;5057055;28;20341;-66
2022/12/10 05:53:44;;;;;;;;;;;26.60;67.80;;;;;;5049043;28;20366;-66
2022/12/10 05:56:15;;;;;;;;;;;26.30;68.40;;;;;;5048068;28;19919;-66
2022/12/10 05:58:43;;;;;;;;;;;26.00;69.10;;;;;;5039445;28;19967;-64
2022/12/10 06:01:11;;;;;;;;;;;25.30;69.30;;;;;;5041362;28;19948;-64
2022/12/10 06:03:38;;;;;;;;;;;25.10;71.30;;;;;;5057823;28;20240;-66
2022/12/10 06:06:05;;;;;;;;;;;24.90;71.90;;;;;;5053535;28;19955;-66
2022/12/10 06:08:32;;;;;;;;;;;24.70;72.20;;;;;;5056297;28;20601;-66
2022/12/10 06:11:06;;;;;;;;;;;24.50;73.10;;;;;;5059209;28;19909;-66
2022/12/10 06:13:32;;;;;;;;;;;24.50;73.60;;;;;;5056117;28;20075;-67
2022/12/10 06:15:59;;;;;;;;;;;24.50;73.00;;;;;;5059215;28;19954;-65
2022/12/10 06:18:26;;;;;;;;;;;24.50;73.60;;;;;;5035732;28;20140;-64
2022/12/10 06:20:52;;;;;;;;;;;24.50;73.20;;;;;;5039694;28;20098;-66
2022/12/10 06:23:19;;;;;;;;;;;24.50;73.40;;;;;;5036267;28;19960;-65
2022/12/10 06:25:45;;;;;;;;;;;24.10;73.60;;;;;;5048789;28;19935;-64
2022/12/10 06:28:12;;;;;;;;;;;23.80;74.20;;;;;;5058037;28;19912;-65
2022/12/10 06:30:39;;;;;;;;;;;23.90;73.80;;;;;;5055554;28;19917;-64
2022/12/10 06:33:06;;;;;;;;;;;23.60;74.50;;;;;;5056289;28;19909;-66
2022/12/10 06:35:32;;;;;;;;;;;23.30;75.20;;;;;;5045208;28;19926;-64
2022/12/10 06:37:59;;;;;;;;;;;23.20;75.30;;;;;;5046491;28;19912;-65
2022/12/10 06:40:25;;;;;;;;;;;23.20;75.20;;;;;;5049365;28;19999;-65
2022/12/10 06:42:52;;;;;;;;;;;23.10;75.90;;;;;;5060425;28;19928;-65
2022/12/10 06:45:19;;;;;;;;;;;23.50;75.10;;;;;;5055862;28;20460;-65
2022/12/10 06:47:46;;;;;;;;;;;23.60;75.50;;;;;;5058502;28;20274;-63
2022/12/10 06:50:12;;;;;;;;;;;23.60;75.00;;;;;;5057699;28;19917;-65
2022/12/10 06:52:39;;;;;;;;;;;23.70;75.70;;;;;;5056756;28;20664;-64
2022/12/10 06:55:06;;;;;;;;;;;23.50;75.90;;;;;;5058786;28;19915;-63
2022/12/10 06:57:33;;;;;;;;;;;23.10;76.10;;;;;;5049129;28;20809;-64
2022/12/10 06:59:59;;;;;;;;;;;23.00;77.20;;;;;;5040862;28;20015;-65
2022/12/10 07:02:26;;;;;;;;;;;22.80;78.20;;;;;;5036349;28;19962;-67
2022/12/10 07:04:56;;;;;;;;;;;22.80;77.50;;;;;;5052361;28;19913;-67
2022/12/10 07:07:22;;;;;;;;;;;22.60;77.50;;;;;;5059357;28;19966;-68
2022/12/10 07:09:49;;;;;;;;;;;22.70;77.60;;;;;;5048939;28;20724;-64
2022/12/10 07:12:16;;;;;;;;;;;22.70;77.40;;;;;;5059303;28;19934;-69
2022/12/10 07:14:42;;;;;;;;;;;22.60;78.00;;;;;;5056792;28;20469;-65
2022/12/10 07:17:09;;;;;;;;;;;22.60;78.30;;;;;;5060474;28;19940;-65
2022/12/10 07:19:36;;;;;;;;;;;22.60;77.90;;;;;;5056213;28;19913;-67
2022/12/10 07:22:02;;;;;;;;;;;22.30;78.70;;;;;;5057810;28;19928;-65
2022/12/10 07:24:29;;;;;;;;;;;22.30;79.20;;;;;;5056759;28;19917;-67
2022/12/10 07:26:56;;;;;;;;;;;22.40;79.40;;;;;;5059388;28;19909;-65
2022/12/10 07:29:22;;;;;;;;;;;22.50;79.70;;;;;;5058992;28;19917;-66
2022/12/10 07:31:49;;;;;;;;;;;22.60;79.00;;;;;;5055977;28;19928;-67
2022/12/10 07:34:16;;;;;;;;;;;22.80;79.00;;;;;;5057738;28;19948;-66
2022/12/10 07:36:43;;;;;;;;;;;22.80;77.70;;;;;;5038901;28;19915;-66
2022/12/10 07:39:10;;;;;;;;;;;22.40;78.90;;;;;;5040372;28;19916;-66
2022/12/10 07:41:37;;;;;;;;;;;22.30;79.20;;;;;;5035346;28;20376;-66
2022/12/10 07:44:06;;;;;;;;;;;21.90;79.70;;;;;;5048717;28;19913;-66
2022/12/10 07:46:33;;;;;;;;;;;21.60;81.40;;;;;;5067590;28;20046;-67
2022/12/10 07:49:01;;;;;;;;;;;21.40;82.30;;;;;;5048360;28;20484;-65
2022/12/10 07:51:27;;;;;;;;;;;21.50;82.00;;;;;;5047949;28;19935;-68
2022/12/10 07:53:54;;;;;;;;;;;21.40;82.90;;;;;;5042644;28;19908;-65
2022/12/10 07:56:22;;;;;;;;;;;21.40;82.50;;;;;;5047931;28;19912;-66
2022/12/10 07:58:49;;;;;;;;;;;21.30;83.30;;;;;;5044061;28;20362;-66
2022/12/10 08:01:18;;;;;;;;;;;21.20;83.30;;;;;;5047168;28;19915;-68
2022/12/10 08:03:44;;;;;;;;;;;21.10;83.80;;;;;;5045449;28;19968;-67
2022/12/10 08:06:13;;;;;;;;;;;21.10;84.00;;;;;;5048016;28;19913;-66
2022/12/10 08:08:40;;;;;;;;;;;21.20;84.00;;;;;;5043988;28;19913;-66
2022/12/10 08:11:07;;;;;;;;;;;21.00;83.90;;;;;;5045073;28;20012;-64
2022/12/10 08:13:34;;;;;;;;;;;20.90;84.00;;;;;;5052434;28;20007;-68
2022/12/10 08:16:08;;;;;;;;;;;20.70;84.20;;;;;;5049074;28;20175;-65
2022/12/10 08:18:34;;;;;;;;;;;20.60;84.20;;;;;;5050206;28;19977;-66
2022/12/10 08:21:05;;;;;;;;;;;20.50;85.00;;;;;;5041220;28;19913;-65
2022/12/10 08:23:32;;;;;;;;;;;20.40;85.80;;;;;;5048472;28;19967;-65
2022/12/10 08:26:02;;;;;;;;;;;20.40;85.70;;;;;;5052297;28;20339;-66
2022/12/10 08:28:29;;;;;;;;;;;20.30;86.20;;;;;;5056507;28;19912;-66
2022/12/10 08:30:55;;;;;;;;;;;20.20;86.50;;;;;;5053165;28;19999;-66
2022/12/10 08:33:22;;;;;;;;;;;20.10;87.00;;;;;;5057360;28;19908;-66
2022/12/10 08:35:49;;;;;;;;;;;20.20;87.00;;;;;;5054214;28;20490;-65
2022/12/10 08:38:15;;;;;;;;;;;20.20;86.30;;;;;;5055580;28;19909;-64
2022/12/10 08:40:42;;;;;;;;;;;20.10;86.10;;;;;;5055532;28;19999;-65
2022/12/10 08:43:09;;;;;;;;;;;20.10;86.40;;;;;;5054560;28;19917;-66
2022/12/10 08:45:35;;;;;;;;;;;20.10;86.30;;;;;;5050388;28;19912;-64
2022/12/10 08:48:02;;;;;;;;;;;19.90;86.70;;;;;;5032363;28;19916;-65
2022/12/10 08:50:29;;;;;;;;;;;19.90;87.30;;;;;;5037050;28;20412;-65
2022/12/10 08:52:56;;;;;;;;;;;20.00;86.90;;;;;;5033235;28;19916;-66
2022/12/10 08:55:22;;;;;;;;;;;20.00;86.80;;;;;;5036581;28;19916;-67
2022/12/10 08:57:49;;;;;;;;;;;19.90;87.30;;;;;;5034284;28;19909;-66
2022/12/10 09:00:16;;;;;;;;;;;19.80;87.80;;;;;;5035172;28;19909;-66
2022/12/10 09:02:42;;;;;;;;;;;19.80;87.80;;;;;;5035826;28;19924;-69
2022/12/10 09:05:09;;;;;;;;;;;19.80;87.60;;;;;;5034192;28;19909;-67
2022/12/10 09:07:36;;;;;;;;;;;19.80;87.50;;;;;;5035802;28;19912;-66
2022/12/10 09:10:02;;;;;;;;;;;19.70;87.80;;;;;;5032523;28;19912;-68
2022/12/10 09:12:29;;;;;;;;;;;19.60;88.20;;;;;;5037036;28;19948;-67
2022/12/10 09:14:56;;;;;;;;;;;19.50;88.40;;;;;;5034680;28;19913;-66
2022/12/10 09:17:22;;;;;;;;;;;19.50;88.40;;;;;;5055365;28;19976;-68
2022/12/10 09:19:49;;;;;;;;;;;19.50;88.90;;;;;;5054852;28;20265;-65
2022/12/10 09:22:16;;;;;;;;;;;19.50;88.80;;;;;;5054247;28;19913;-66
2022/12/10 09:24:42;;;;;;;;;;;19.40;89.20;;;;;;5054230;28;19925;-65
2022/12/10 09:27:09;;;;;;;;;;;19.30;89.60;;;;;;5052405;28;19980;-65
2022/12/10 09:29:35;;;;;;;;;;;19.30;90.00;;;;;;5056277;28;19912;-64
2022/12/10 09:32:02;;;;;;;;;;;19.30;89.60;;;;;;5052584;28;19917;-67
2022/12/10 09:34:29;;;;;;;;;;;19.30;90.00;;;;;;5055471;28;19961;-66
2022/12/10 09:36:56;;;;;;;;;;;19.30;89.80;;;;;;5054413;28;20110;-65
2022/12/10 09:39:22;;;;;;;;;;;19.40;90.00;;;;;;5054168;28;20281;-69
2022/12/10 09:41:49;;;;;;;;;;;19.40;90.00;;;;;;5052873;28;19935;-68
2022/12/10 09:44:29;;;;;;;;;;;19.30;90.00;;;;;;5034577;28;20013;-68
2022/12/10 09:46:57;;;;;;;;;;;19.30;90.20;;;;;;5053338;28;19970;-66
2022/12/10 09:49:29;;;;;;;;;;;19.20;90.30;;;;;;5054034;28;19987;-66
2022/12/10 09:51:58;;;;;;;;;;;19.20;90.50;;;;;;5054220;28;19913;-66
2022/12/10 09:54:27;;;;;;;;;;;19.20;90.70;;;;;;5054103;28;20300;-67
2022/12/10 09:56:54;;;;;;;;;;;19.10;90.70;;;;;;5056225;28;19931;-65
2022/12/10 09:59:42;;;;;;;;;;;19.10;90.80;;;;;;5053495;28;19908;-66
2022/12/10 10:02:12;;;;;;;;;;;19.00;91.00;;;;;;5054436;28;20006;-68
2022/12/10 10:04:38;;;;;;;;;;;19.10;91.00;;;;;;5054923;28;19912;-65
2022/12/10 10:07:06;;;;;;;;;;;19.20;90.80;;;;;;5056823;28;19977;-67
2022/12/10 10:09:34;;;;;;;;;;;19.10;90.70;;;;;;5047335;28;19982;-66
2022/12/10 10:12:01;;;;;;;;;;;19.10;90.80;;;;;;5035486;28;19912;-66
2022/12/10 10:14:28;;;;;;;;;;;19.10;90.90;;;;;;5032406;28;20008;-68
2022/12/10 10:17:01;;;;;;;;;;;19.20;90.80;;;;;;5036101;28;19951;-67
2022/12/10 10:19:33;;;;;;;;;;;19.20;90.90;;;;;;5033593;28;20249;-66
2022/12/10 10:22:00;;;;;;;;;;;19.20;90.90;;;;;;5039133;28;19913;-68
2022/12/10 10:24:31;;;;;;;;;;;19.20;90.80;;;;;;5036237;28;19952;-66
2022/12/10 10:27:00;;;;;;;;;;;19.10;90.90;;;;;;5039705;28;19959;-65
2022/12/10 10:29:26;;;;;;;;;;;19.00;91.00;;;;;;5036312;28;19916;-67
2022/12/10 10:32:11;;;;;;;;;;;19.10;91.10;;;;;;5039276;28;19966;-66
2022/12/10 10:34:40;;;;;;;;;;;19.00;91.10;;;;;;5037309;28;19912;-65
2022/12/10 10:37:07;;;;;;;;;;;19.00;91.30;;;;;;5038618;28;19909;-65
2022/12/10 10:39:36;;;;;;;;;;;19.00;91.30;;;;;;5036606;28;19952;-67
2022/12/10 10:42:08;;;;;;;;;;;19.00;91.50;;;;;;5041152;28;19963;-68
2022/12/10 10:44:37;;;;;;;;;;;19.10;91.50;;;;;;5036868;28;19916;-68
2022/12/10 10:47:23;;;;;;;;;;;19.00;91.50;;;;;;5041049;28;19939;-65
2022/12/10 10:49:49;;;;;;;;;;;19.00;91.50;;;;;;5038021;28;19985;-66
2022/12/10 10:52:17;;;;;;;;;;;19.00;91.60;;;;;;5041112;28;19956;-67
2022/12/10 10:54:44;;;;;;;;;;;19.00;91.70;;;;;;5038329;28;20970;-65
2022/12/10 10:57:11;;;;;;;;;;;19.00;91.50;;;;;;5041278;28;19916;-65
2022/12/10 10:59:38;;;;;;;;;;;19.00;91.50;;;;;;5037358;28;19916;-65
2022/12/10 11:02:15;;;;;;;;;;;18.90;91.60;;;;;;5040436;28;20029;-67
2022/12/10 11:04:49;;;;;;;;;;;18.90;91.70;;;;;;5036563;28;19913;-66
2022/12/10 11:07:21;;;;;;;;;;;18.90;91.80;;;;;;5041175;28;20254;-68
2022/12/10 11:09:48;;;;;;;;;;;18.90;92.10;;;;;;5037353;28;19931;-68
2022/12/10 11:12:28;;;;;;;;;;;18.80;92.10;;;;;;5040933;28;19928;-67
2022/12/10 11:14:55;;;;;;;;;;;18.90;92.40;;;;;;5037420;28;19909;-68
2022/12/10 11:17:24;;;;;;;;;;;18.80;92.20;;;;;;5047860;28;19912;-69
2022/12/10 11:20:02;;;;;;;;;;;18.90;92.40;;;;;;5055925;28;19939;-69
2022/12/10 11:22:29;;;;;;;;;;;18.90;92.30;;;;;;5059851;28;20025;-68
2022/12/10 11:24:57;;;;;;;;;;;19.00;92.30;;;;;;5057471;28;19929;-68
2022/12/10 11:27:23;;;;;;;;;;;19.00;92.30;;;;;;5058234;28;19913;-67
2022/12/10 11:30:00;;;;;;;;;;;19.00;92.30;;;;;;5056959;28;19939;-67
2022/12/10 11:32:35;;;;;;;;;;;18.90;92.40;;;;;;5059540;28;19909;-68
2022/12/10 11:35:02;;;;;;;;;;;19.00;92.50;;;;;;5057980;28;19920;-68
2022/12/10 11:37:38;;;;;;;;;;;19.00;92.70;;;;;;5059176;28;20559;-70
2022/12/10 11:40:19;;;;;;;;;;;19.00;92.40;;;;;;5059346;28;20007;-70
2022/12/10 11:43:04;;;;;;;;;;;19.00;92.40;;;;;;5056597;28;20030;-68
2022/12/10 11:45:50;;;;;;;;;;;19.00;92.60;;;;;;5059626;28;19932;-68
2022/12/10 11:48:35;;;;;;;;;;;19.00;92.60;;;;;;5055651;28;20361;-69
2022/12/10 11:51:06;;;;;;;;;;;19.00;92.50;;;;;;5057193;28;19970;-68
2022/12/10 11:53:36;;;;;;;;;;;19.00;92.80;;;;;;5059536;28;19909;-68
2022/12/10 11:56:14;;;;;;;;;;;18.90;92.90;;;;;;5057195;28;20069;-68
2022/12/10 11:59:07;;;;;;;;;;;19.00;92.80;;;;;;5057246;28;19908;-69
2022/12/10 12:01:43;;;;;;;;;;;18.90;92.80;;;;;;5043131;28;20475;-69
2022/12/10 12:04:20;;;;;;;;;;;18.90;92.80;;;;;;5049194;28;20001;-69
2022/12/10 12:06:56;;;;;;;;;;;18.90;92.90;;;;;;5045513;28;19916;-70
2022/12/10 12:09:25;;;;;;;;;;;18.90;93.00;;;;;;5048762;28;20262;-69
2022/12/10 12:11:57;;;;;;;;;;;18.90;93.10;;;;;;5043719;28;19912;-69
2022/12/10 12:14:44;;;;;;;;;;;18.90;93.20;;;;;;5048493;28;19908;-67
2022/12/10 12:17:14;;;;;;;;;;;18.90;93.30;;;;;;5046507;28;19957;-68
2022/12/10 12:19:44;;;;;;;;;;;18.80;93.60;;;;;;5047938;28;19913;-68
2022/12/10 12:22:26;;;;;;;;;;;18.90;93.70;;;;;;5045855;28;20464;-69
2022/12/10 12:24:59;;;;;;;;;;;18.80;93.50;;;;;;5045608;28;19935;-68
2022/12/10 12:27:33;;;;;;;;;;;18.80;93.60;;;;;;5049285;28;20258;-68
2022/12/10 12:30:17;;;;;;;;;;;18.80;93.80;;;;;;5043946;28;19916;-68
2022/12/10 12:32:47;;;;;;;;;;;18.80;93.90;;;;;;5046562;28;19919;-68
2022/12/10 12:35:23;;;;;;;;;;;18.80;94.10;;;;;;5042591;28;19913;-68
2022/12/10 12:37:59;;;;;;;;;;;18.70;94.00;;;;;;5042534;28;19970;-69
2022/12/10 12:40:33;;;;;;;;;;;18.70;94.30;;;;;;5042629;28;20482;-68
2022/12/10 12:43:02;;;;;;;;;;;18.70;94.30;;;;;;5042816;28;20369;-68
2022/12/10 12:45:32;;;;;;;;;;;18.60;94.60;;;;;;5044109;28;20266;-67
2022/12/10 12:48:05;;;;;;;;;;;18.50;94.60;;;;;;5043938;28;20395;-67
2022/12/10 12:50:45;;;;;;;;;;;18.60;94.80;;;;;;5046845;28;19959;-68
2022/12/10 12:53:16;;;;;;;;;;;18.50;94.70;;;;;;5043528;28;19908;-68
2022/12/10 12:55:57;;;;;;;;;;;18.50;94.80;;;;;;5046524;28;20659;-69
2022/12/10 12:58:29;;;;;;;;;;;18.50;95.00;;;;;;5043964;28;19913;-69
2022/12/10 13:00:58;;;;;;;;;;;18.40;94.90;;;;;;5043384;28;19913;-68
2022/12/10 13:03:25;;;;;;;;;;;18.40;95.00;;;;;;5043812;28;20268;-68
2022/12/10 13:05:51;;;;;;;;;;;18.40;94.90;;;;;;5043800;28;20332;-68
2022/12/10 13:08:18;;;;;;;;;;;18.40;95.30;;;;;;5041912;28;20000;-68
2022/12/10 13:10:46;;;;;;;;;;;18.40;95.30;;;;;;5036843;28;20358;-67
2022/12/10 13:13:28;;;;;;;;;;;18.30;95.50;;;;;;5033343;28;20397;-68
2022/12/10 13:15:54;;;;;;;;;;;18.40;95.60;;;;;;5035958;28;19908;-69
2022/12/10 13:18:41;;;;;;;;;;;18.30;95.60;;;;;;5035088;28;19959;-67
2022/12/10 13:21:37;;;;;;;;;;;18.30;95.60;;;;;;5033535;28;19912;-68
2022/12/10 13:24:11;;;;;;;;;;;18.30;95.70;;;;;;5029025;28;19916;-67
2022/12/10 13:26:41;;;;;;;;;;;18.20;95.90;;;;;;5036327;28;19909;-67
2022/12/10 13:29:23;;;;;;;;;;;18.10;95.90;;;;;;5053404;28;19995;-67
2022/12/10 13:32:16;;;;;;;;;;;18.10;96.10;;;;;;5056420;28;20341;-67
2022/12/10 13:34:43;;;;;;;;;;;18.10;96.30;;;;;;5054585;28;19967;-68
2022/12/10 13:37:29;;;;;;;;;;;18.00;96.40;;;;;;5053530;28;19908;-68
2022/12/10 13:40:07;;;;;;;;;;;18.00;96.60;;;;;;5054945;28;19909;-68
2022/12/10 13:45:25;;;;;;;;;;;17.90;96.80;;;;;;5053330;28;20359;-68
2022/12/10 13:47:52;;;;;;;;;;;17.80;97.00;;;;;;5055941;28;20073;-67
2022/12/10 13:50:20;;;;;;;;;;;17.90;97.20;;;;;;5052359;28;19939;-68
2022/12/10 13:52:50;;;;;;;;;;;17.90;97.50;;;;;;5055829;28;19916;-68
2022/12/10 13:55:23;;;;;;;;;;;17.80;97.40;;;;;;5056182;28;20372;-68
2022/12/10 13:57:55;;;;;;;;;;;17.80;97.60;;;;;;5059785;28;19913;-68
2022/12/10 14:00:24;;;;;;;;;;;17.80;97.70;;;;;;5056176;28;20475;-68
2022/12/10 14:02:57;;;;;;;;;;;17.70;97.90;;;;;;5059237;28;19962;-69
2022/12/10 14:05:33;;;;;;;;;;;17.70;98.10;;;;;;5055415;28;20003;-67
2022/12/10 14:08:00;;;;;;;;;;;17.70;98.30;;;;;;5060049;28;20271;-68
2022/12/10 14:10:30;;;;;;;;;;;17.60;98.30;;;;;;5057245;28;19912;-67
2022/12/10 14:12:58;;;;;;;;;;;17.60;98.50;;;;;;5059494;28;20574;-67
2022/12/10 14:15:26;;;;;;;;;;;17.70;98.50;;;;;;5054723;28;19917;-68
2022/12/10 14:18:01;;;;;;;;;;;17.70;98.60;;;;;;5059390;28;19916;-67
2022/12/10 14:20:29;;;;;;;;;;;17.70;98.50;;;;;;5056932;28;20299;-68
2022/12/10 14:23:32;;;;;;;;;;;17.80;98.50;;;;;;5058736;28;19931;-67
2022/12/10 14:25:43;;;;;;;;;;;17.70;98.60;;;;;;5058199;28;20415;-68
2022/12/10 14:28:14;;;;;;;;;;;17.70;98.50;;;;;;5056297;28;19958;-68
2022/12/10 14:30:45;;;;;;;;;;;17.70;98.70;;;;;;5057450;28;20283;-68
2022/12/10 14:33:21;;;;;;;;;;;17.60;98.70;;;;;;5056939;28;19963;-69
2022/12/10 14:35:49;;;;;;;;;;;17.50;98.70;;;;;;5058558;28;19919;-68
2022/12/10 14:38:33;;;;;;;;;;;17.50;99.10;;;;;;5057254;28;20356;-68
2022/12/10 14:41:00;;;;;;;;;;;17.60;99.20;;;;;;5059448;28;19947;-68